createdAt,value
2023-08-12T00:01:32.288Z,100636.56
2023-08-12T00:04:00.803Z,100633.22
2023-08-12T00:06:29.464Z,100629.97
2023-08-12T00:08:59.243Z,100635.53
2023-08-12T00:11:27.968Z,100627.00
2023-08-12T00:13:56.867Z,100621.88
2023-08-12T00:16:27.511Z,100626.28
2023-08-12T00:18:56.366Z,100622.06
2023-08-12T00:21:30.583Z,100615.47
2023-08-12T00:24:00.627Z,100620.88
2023-08-12T00:26:29.796Z,100624.59
2023-08-12T00:28:58.631Z,100621.03
2023-08-12T00:31:29.016Z,100617.81
2023-08-12T00:33:58.694Z,100612.91
2023-08-12T00:36:27.542Z,100618.31
2023-08-12T00:39:00.551Z,100614.09
2023-08-12T00:41:30.043Z,100612.44
2023-08-12T00:43:59.178Z,100612.50
2023-08-12T00:46:28.080Z,100618.59
2023-08-12T00:48:57.042Z,100607.97
2023-08-12T00:51:29.844Z,100613.44
2023-08-12T00:54:01.398Z,100606.78
2023-08-12T00:56:31.527Z,100608.72
2023-08-12T00:59:02.418Z,100608.72
2023-08-12T01:01:33.734Z,100606.44
2023-08-12T01:04:02.371Z,100609.38
2023-08-12T01:06:30.935Z,100606.28
2023-08-12T01:08:59.539Z,100603.66
2023-08-12T01:11:38.843Z,100606.84
2023-08-12T01:14:13.456Z,100598.31
2023-08-12T01:16:47.020Z,100596.44
2023-08-12T01:19:26.656Z,100598.09
2023-08-12T01:21:56.398Z,100599.72
2023-08-12T01:24:28.115Z,100591.47
2023-08-12T01:26:56.837Z,100600.41
2023-08-12T01:29:25.384Z,100602.38
2023-08-12T01:31:57.899Z,100600.75
2023-08-12T01:34:35.189Z,100594.69
2023-08-12T01:37:06.343Z,100597.41
2023-08-12T01:39:37.856Z,100592.31
2023-08-12T01:42:07.988Z,100597.91
2023-08-12T01:44:36.685Z,100602.25
2023-08-12T01:47:05.707Z,100599.75
2023-08-12T01:49:37.257Z,100592.19
2023-08-12T01:52:06.276Z,100598.31
2023-08-12T01:54:36.406Z,100601.88
2023-08-12T01:57:07.372Z,100604.63
2023-08-12T01:59:36.643Z,100610.81
2023-08-12T02:02:06.002Z,100604.63
2023-08-12T02:04:37.885Z,100612.50
2023-08-12T02:07:07.187Z,100609.28
2023-08-12T02:09:37.046Z,100607.91
2023-08-12T02:12:06.622Z,100607.91
2023-08-12T02:14:35.366Z,100608.94
2023-08-12T02:17:04.037Z,100604.78
2023-08-12T02:19:32.910Z,100607.66
2023-08-12T02:22:01.685Z,100613.06
2023-08-12T02:24:30.711Z,100608.72
2023-08-12T02:27:03.165Z,100602.75
2023-08-12T02:29:31.649Z,100612.50
2023-08-12T02:32:00.116Z,100614.84
2023-08-12T02:34:28.889Z,100615.50
2023-08-12T02:37:00.507Z,100603.41
2023-08-12T02:39:29.258Z,100603.75
2023-08-12T02:41:58.074Z,100612.78
2023-08-12T02:44:28.925Z,100611.31
2023-08-12T02:46:57.801Z,100610.59
2023-08-12T02:49:26.074Z,100630.63
2023-08-12T02:51:55.437Z,100620.28
2023-08-12T02:54:23.962Z,100625.44
2023-08-12T02:56:53.006Z,100622.19
2023-08-12T02:59:21.762Z,100625.84
2023-08-12T03:01:52.049Z,100628.53
2023-08-12T03:04:20.785Z,100622.56
2023-08-12T03:06:49.975Z,100625.28
2023-08-12T03:09:21.240Z,100622.91
2023-08-12T03:11:54.571Z,100627.47
2023-08-12T03:14:23.395Z,100631.09
2023-08-12T03:16:53.652Z,100626.91
2023-08-12T03:19:22.587Z,100621.09
2023-08-12T03:21:51.309Z,100627.31
2023-08-12T03:24:19.993Z,100629.03
2023-08-12T03:26:52.770Z,100623.03
2023-08-12T03:29:21.698Z,100637.13
2023-08-12T03:31:55.031Z,100643.34
2023-08-12T03:34:25.307Z,100645.06
2023-08-12T03:36:54.081Z,100643.28
2023-08-12T03:39:22.979Z,100651.16
2023-08-12T03:41:54.120Z,100650.31
2023-08-12T03:44:23.427Z,100651.16
2023-08-12T03:46:55.154Z,100658.06
2023-08-12T03:49:24.827Z,100643.34
2023-08-12T03:51:55.998Z,100653.56
2023-08-12T03:54:24.745Z,100655.22
2023-08-12T03:56:53.613Z,100657.97
2023-08-12T03:59:23.020Z,100652.72
2023-08-12T04:01:51.784Z,100654.44
2023-08-12T04:04:22.612Z,100650.09
2023-08-12T04:06:53.358Z,100646.44
2023-08-12T04:09:22.917Z,100659.50
2023-08-12T04:11:52.082Z,100662.00
2023-08-12T04:14:20.782Z,100643.53
2023-08-12T04:16:49.324Z,100650.38
2023-08-12T04:19:21.494Z,100643.28
2023-08-12T04:21:50.485Z,100648.44
2023-08-12T04:24:20.464Z,100647.47
2023-08-12T04:26:50.081Z,100649.06
2023-08-12T04:29:19.425Z,100654.06
2023-08-12T04:31:51.525Z,100656.50
2023-08-12T04:34:21.764Z,100661.47
2023-08-12T04:36:51.042Z,100663.13
2023-08-12T04:39:19.782Z,100669.06
2023-08-12T04:41:48.735Z,100664.47
2023-08-12T04:44:18.238Z,100668.69
2023-08-12T04:46:47.850Z,100658.88
2023-08-12T04:49:18.330Z,100662.16
2023-08-12T04:51:48.619Z,100662.81
2023-08-12T04:54:17.357Z,100665.19
2023-08-12T04:56:45.999Z,100671.00
2023-08-12T04:59:15.057Z,100666.34
2023-08-12T05:01:58.583Z,100657.25
2023-08-12T05:04:34.907Z,100656.81
2023-08-12T05:07:06.893Z,100664.34
2023-08-12T05:09:36.493Z,100663.16
2023-08-12T05:12:05.653Z,100669.00
2023-08-12T05:14:34.535Z,100661.56
2023-08-12T05:17:04.068Z,100654.06
2023-08-12T05:19:33.398Z,100652.66
2023-08-12T05:22:07.017Z,100650.38
2023-08-12T05:24:35.964Z,100650.72
2023-08-12T05:27:05.295Z,100649.25
2023-08-12T05:29:33.966Z,100643.38
2023-08-12T05:32:03.453Z,100647.09
2023-08-12T05:34:32.872Z,100641.81
2023-08-12T05:37:01.937Z,100651.69
2023-08-12T05:39:32.113Z,100641.47
2023-08-12T05:42:01.538Z,100639.03
2023-08-12T05:44:30.059Z,100637.31
2023-08-12T05:46:58.431Z,100640.06
2023-08-12T05:49:27.147Z,100634.88
2023-08-12T05:51:55.940Z,100631.53
2023-08-12T05:54:24.876Z,100633.38
2023-08-12T05:56:55.321Z,100629.50
2023-08-12T05:59:23.953Z,100629.19
2023-08-12T06:01:52.543Z,100638.69
2023-08-12T06:04:21.064Z,100640.28
2023-08-12T06:06:49.768Z,100641.63
2023-08-12T06:09:18.392Z,100635.09
2023-08-12T06:11:46.976Z,100641.03
2023-08-12T06:14:17.165Z,100633.22
2023-08-12T06:16:44.755Z,100633.56
2023-08-12T06:19:13.258Z,100648.00
2023-08-12T06:21:42.119Z,100647.38
2023-08-12T06:24:11.003Z,100641.56
2023-08-12T06:26:39.652Z,100644.03
2023-08-12T06:29:08.262Z,100651.88
2023-08-12T06:31:38.679Z,100650.91
2023-08-12T06:34:08.381Z,100649.25
2023-08-12T06:36:37.718Z,100640.97
2023-08-12T06:39:07.477Z,100648.09
2023-08-12T06:41:36.173Z,100652.69
2023-08-12T06:44:06.009Z,100647.41
2023-08-12T06:46:35.401Z,100661.06
2023-08-12T06:49:06.135Z,100651.31
2023-08-12T06:51:37.832Z,100659.41
2023-08-12T06:54:07.322Z,100654.91
2023-08-12T06:56:36.042Z,100659.91
2023-08-12T06:59:04.880Z,100664.69
2023-08-12T07:01:33.534Z,100660.84
2023-08-12T07:04:02.956Z,100657.72
2023-08-12T07:06:33.324Z,100647.53
2023-08-12T07:09:01.934Z,100651.09
2023-08-12T07:11:33.245Z,100640.97
2023-08-12T07:14:02.398Z,100649.50
2023-08-12T07:16:31.803Z,100648.84
2023-08-12T07:19:00.569Z,100652.69
2023-08-12T07:21:29.209Z,100649.41
2023-08-12T07:24:03.888Z,100647.88
2023-08-12T07:26:33.080Z,100644.75
2023-08-12T07:29:02.618Z,100653.38
2023-08-12T07:31:31.894Z,100650.91
2023-08-12T07:34:01.193Z,100655.41
2023-08-12T07:36:30.286Z,100652.47
2023-08-12T07:39:00.621Z,100654.88
2023-08-12T07:41:29.432Z,100650.50
2023-08-12T07:43:58.531Z,100647.66
2023-08-12T07:46:27.592Z,100649.00
2023-08-12T07:48:56.252Z,100645.09
2023-08-12T07:51:25.205Z,100646.13
2023-08-12T07:53:54.089Z,100638.13
2023-08-12T07:56:24.925Z,100638.66
2023-08-12T07:58:53.615Z,100641.31
2023-08-12T08:01:23.036Z,100637.06
2023-08-12T08:03:52.484Z,100639.47
2023-08-12T08:06:21.325Z,100636.47
2023-08-12T08:08:49.968Z,100634.88
2023-08-12T08:11:18.642Z,100633.41
2023-08-12T08:13:48.623Z,100639.19
2023-08-12T08:16:17.770Z,100631.03
2023-08-12T08:18:46.977Z,100634.94
2023-08-12T08:21:16.130Z,100633.69
2023-08-12T08:23:46.029Z,100629.88
2023-08-12T08:26:16.931Z,100622.97
2023-08-12T08:28:46.238Z,100624.88
2023-08-12T08:31:16.814Z,100617.66
2023-08-12T08:33:45.818Z,100610.91
2023-08-12T08:36:14.823Z,100614.03
2023-08-12T08:38:43.960Z,100607.72
2023-08-12T08:41:13.184Z,100609.97
2023-08-12T08:43:45.186Z,100608.44
2023-08-12T08:46:18.078Z,100603.66
2023-08-12T08:48:48.080Z,100606.16
2023-08-12T08:51:17.339Z,100604.16
2023-08-12T08:53:46.488Z,100600.06
2023-08-12T08:56:16.279Z,100600.34
2023-08-12T08:58:45.206Z,100597.06
2023-08-12T09:01:16.900Z,100603.56
2023-08-12T09:03:46.093Z,100596.44
2023-08-12T09:06:14.970Z,100594.41
2023-08-12T09:08:47.574Z,100589.03
2023-08-12T09:11:18.133Z,100595.25
2023-08-12T09:13:49.324Z,100586.88
2023-08-12T09:16:19.841Z,100585.84
2023-08-12T09:18:51.018Z,100582.25
2023-08-12T09:21:20.035Z,100578.59
2023-08-12T09:23:49.161Z,100583.81
2023-08-12T09:26:19.479Z,100574.16
2023-08-12T09:28:49.359Z,100572.66
2023-08-12T09:31:28.134Z,100576.38
2023-08-12T09:34:01.013Z,100575.44
2023-08-12T09:36:36.769Z,100582.94
2023-08-12T09:39:10.385Z,100580.25
2023-08-12T09:41:40.849Z,100576.72
2023-08-12T09:44:09.431Z,100579.78
2023-08-12T09:46:40.612Z,100569.63
2023-08-12T09:49:09.635Z,100570.00
2023-08-12T09:51:41.083Z,100566.72
2023-08-12T09:54:11.583Z,100552.09
2023-08-12T09:56:43.149Z,100562.28
2023-08-12T09:59:13.600Z,100566.94
2023-08-12T10:01:45.812Z,100559.22
2023-08-12T10:04:19.558Z,100560.75
2023-08-12T10:06:50.560Z,100558.78
2023-08-12T10:09:20.297Z,100551.69
2023-08-12T10:11:49.093Z,100552.03
2023-08-12T10:14:18.640Z,100551.41
2023-08-12T10:16:49.083Z,100545.38
2023-08-12T10:19:19.341Z,100542.06
2023-08-12T10:21:49.879Z,100545.31
2023-08-12T10:24:19.333Z,100544.63
2023-08-12T10:26:48.876Z,100540.06
2023-08-12T10:29:18.111Z,100539.09
2023-08-12T10:31:49.700Z,100527.47
2023-08-12T10:34:22.943Z,100538.47
2023-08-12T10:37:02.847Z,100535.44
2023-08-12T10:39:35.295Z,100535.59
2023-08-12T10:42:04.143Z,100524.63
2023-08-12T10:44:41.908Z,100532.72
2023-08-12T10:47:13.386Z,100530.69
2023-08-12T10:49:46.108Z,100522.25
2023-08-12T10:52:29.809Z,100528.16
2023-08-12T10:55:19.056Z,100520.53
2023-08-12T10:57:48.439Z,100513.31
2023-08-12T11:00:23.079Z,100506.84
2023-08-12T11:02:54.171Z,100519.31
2023-08-12T11:05:23.407Z,100512.69
2023-08-12T11:07:59.598Z,100511.09
2023-08-12T11:10:31.931Z,100498.44
2023-08-12T11:13:03.793Z,100495.69
2023-08-12T11:15:34.916Z,100502.78
2023-08-12T11:18:07.099Z,100501.59
2023-08-12T11:20:37.385Z,100500.97
2023-08-12T11:23:10.826Z,100495.41
2023-08-12T11:25:40.859Z,100496.78
2023-08-12T11:28:13.942Z,100494.78
2023-08-12T11:30:44.921Z,100482.25
2023-08-12T11:33:14.989Z,100480.88
2023-08-12T11:35:43.503Z,100476.09
2023-08-12T11:38:14.521Z,100468.53
2023-08-12T11:40:43.052Z,100469.97
2023-08-12T11:43:11.565Z,100477.09
2023-08-12T11:45:44.388Z,100477.16
2023-08-12T11:48:14.455Z,100474.09
2023-08-12T11:50:45.237Z,100472.13
2023-08-12T11:53:13.788Z,100463.06
2023-08-12T11:55:42.409Z,100450.81
2023-08-12T11:58:11.223Z,100452.81
2023-08-12T12:00:40.038Z,100463.53
2023-08-12T12:03:09.186Z,100457.94
2023-08-12T12:05:39.036Z,100449.47
2023-08-12T12:08:10.189Z,100450.88
2023-08-12T12:10:38.519Z,100442.47
2023-08-12T12:13:10.217Z,100447.88
2023-08-12T12:15:41.172Z,100446.31
2023-08-12T12:18:12.326Z,100451.00
2023-08-12T12:20:57.777Z,100435.25
2023-08-12T12:23:30.258Z,100439.38
2023-08-12T12:26:02.838Z,100439.81
2023-08-12T12:28:34.179Z,100430.03
2023-08-12T12:31:03.089Z,100438.44
2023-08-12T12:33:31.626Z,100441.94
2023-08-12T12:36:04.081Z,100440.09
2023-08-12T12:38:34.388Z,100433.81
2023-08-12T12:41:02.912Z,100438.78
2023-08-12T12:43:31.293Z,100436.75
2023-08-12T12:45:59.726Z,100430.66
2023-08-12T12:48:29.847Z,100436.06
2023-08-12T12:50:58.909Z,100432.75
2023-08-12T12:53:28.663Z,100420.22
2023-08-12T12:56:05.062Z,100429.28
2023-08-12T12:58:34.337Z,100421.50
2023-08-12T13:01:03.074Z,100422.56
2023-08-12T13:03:32.576Z,100413.81
2023-08-12T13:06:01.980Z,100412.78
2023-08-12T13:08:32.954Z,100416.13
2023-08-12T13:11:01.594Z,100410.03
2023-08-12T13:13:30.368Z,100404.81
2023-08-12T13:15:59.259Z,100405.91
2023-08-12T13:18:27.613Z,100413.53
2023-08-12T13:20:56.422Z,100397.03
2023-08-12T13:23:24.742Z,100398.81
2023-08-12T13:25:55.169Z,100395.56
2023-08-12T13:28:23.775Z,100396.81
2023-08-12T13:30:52.066Z,100399.78
2023-08-12T13:33:20.772Z,100399.22
2023-08-12T13:35:49.468Z,100390.81
2023-08-12T13:38:18.277Z,100398.41
2023-08-12T13:40:46.620Z,100390.41
2023-08-12T13:43:17.183Z,100389.66
2023-08-12T13:45:45.579Z,100383.41
2023-08-12T13:48:14.079Z,100379.78
2023-08-12T13:50:43.244Z,100384.78
2023-08-12T13:53:14.204Z,100379.38
2023-08-12T13:55:43.348Z,100376.03
2023-08-12T13:58:15.692Z,100382.47
2023-08-12T14:00:45.391Z,100383.91
2023-08-12T14:03:13.662Z,100373.59
2023-08-12T14:05:42.348Z,100369.28
2023-08-12T14:08:10.602Z,100374.16
2023-08-12T14:10:38.834Z,100371.00
2023-08-12T14:13:08.048Z,100369.78
2023-08-12T14:15:38.083Z,100371.91
2023-08-12T14:18:08.206Z,100361.50
2023-08-12T14:20:36.633Z,100365.53
2023-08-12T14:23:05.543Z,100352.25
2023-08-12T14:25:33.980Z,100360.84
2023-08-12T14:28:02.499Z,100361.16
2023-08-12T14:30:30.765Z,100359.16
2023-08-12T14:33:00.298Z,100351.94
2023-08-12T14:35:30.819Z,100356.91
2023-08-12T14:37:59.030Z,100352.22
2023-08-12T14:40:28.890Z,100348.97
2023-08-12T14:42:57.699Z,100341.63
2023-08-12T14:45:26.135Z,100339.94
2023-08-12T14:47:54.513Z,100342.69
2023-08-12T14:50:23.191Z,100331.06
2023-08-12T14:52:52.901Z,100329.53
2023-08-12T14:55:22.404Z,100326.81
2023-08-12T14:57:51.604Z,100323.13
2023-08-12T15:00:20.999Z,100316.75
2023-08-12T15:02:49.456Z,100319.13
2023-08-12T15:05:18.933Z,100318.34
2023-08-12T15:07:47.203Z,100311.94
2023-08-12T15:10:16.935Z,100308.75
2023-08-12T15:12:45.604Z,100309.97
2023-08-12T15:15:14.820Z,100303.09
2023-08-12T15:17:43.099Z,100301.78
2023-08-12T15:20:12.454Z,100312.06
2023-08-12T15:22:40.645Z,100300.81
2023-08-12T15:25:09.929Z,100294.56
2023-08-12T15:27:39.668Z,100292.75
2023-08-12T15:30:09.281Z,100283.31
2023-08-12T15:32:41.492Z,100296.78
2023-08-12T15:35:11.958Z,100288.16
2023-08-12T15:37:42.161Z,100289.69
2023-08-12T15:40:11.503Z,100292.91
2023-08-12T15:42:44.758Z,100295.25
2023-08-12T15:45:14.535Z,100294.72
2023-08-12T15:47:43.008Z,100284.63
2023-08-12T15:50:13.545Z,100288.44
2023-08-12T15:52:41.939Z,100290.94
2023-08-12T15:55:10.637Z,100286.84
2023-08-12T15:57:38.937Z,100285.13
2023-08-12T16:00:11.905Z,100293.19
2023-08-12T16:02:41.868Z,100288.13
2023-08-12T16:05:10.895Z,100280.75
2023-08-12T16:07:41.175Z,100280.75
2023-08-12T16:10:10.624Z,100279.88
2023-08-12T16:12:39.094Z,100278.81
2023-08-12T16:15:09.761Z,100286.84
2023-08-12T16:17:38.088Z,100280.75
2023-08-12T16:20:09.107Z,100280.38
2023-08-12T16:22:37.403Z,100275.47
2023-08-12T16:25:06.579Z,100276.13
2023-08-12T16:27:35.021Z,100274.03
2023-08-12T16:30:03.413Z,100274.84
2023-08-12T16:32:33.209Z,100271.28
2023-08-12T16:35:01.966Z,100272.91
2023-08-12T16:37:30.405Z,100267.47
2023-08-12T16:39:59.356Z,100269.41
2023-08-12T16:42:28.268Z,100270.50
2023-08-12T16:44:56.871Z,100275.94
2023-08-12T16:47:25.709Z,100264.44
2023-08-12T16:49:55.464Z,100267.69
2023-08-12T16:52:25.949Z,100268.97
2023-08-12T16:54:54.245Z,100271.91
2023-08-12T16:57:22.680Z,100274.38
2023-08-12T16:59:52.175Z,100274.75
2023-08-12T17:02:20.673Z,100280.59
2023-08-12T17:04:49.213Z,100283.59
2023-08-12T17:07:22.376Z,100282.28
2023-08-12T17:09:50.674Z,100277.16
2023-08-12T17:12:19.227Z,100278.00
2023-08-12T17:14:48.466Z,100278.31
2023-08-12T17:17:17.132Z,100278.53
2023-08-12T17:19:45.497Z,100271.66
2023-08-12T17:22:14.237Z,100274.50
2023-08-12T17:24:44.721Z,100268.63
2023-08-12T17:27:13.056Z,100274.13
2023-08-12T17:29:41.452Z,100271.59
2023-08-12T17:32:09.667Z,100277.38
2023-08-12T17:34:38.557Z,100260.78
2023-08-12T17:37:06.902Z,100270.94
2023-08-12T17:39:36.462Z,100266.97
2023-08-12T17:42:06.459Z,100267.22
2023-08-12T17:44:35.382Z,100258.63
2023-08-12T17:47:03.816Z,100253.41
2023-08-12T17:49:32.658Z,100258.16
2023-08-12T17:52:02.375Z,100259.41
2023-08-12T17:54:31.161Z,100259.75
2023-08-12T17:56:59.294Z,100266.16
2023-08-12T17:59:28.898Z,100260.44
2023-08-12T18:01:57.339Z,100262.22
2023-08-12T18:04:26.742Z,100263.88
2023-08-12T18:06:55.189Z,100264.66
2023-08-12T18:09:24.110Z,100271.63
2023-08-12T18:11:52.496Z,100271.69
2023-08-12T18:14:22.576Z,100265.41
2023-08-12T18:16:52.421Z,100262.09
2023-08-12T18:19:23.802Z,100269.88
2023-08-12T18:21:52.073Z,100257.31
2023-08-12T18:24:20.217Z,100267.06
2023-08-12T18:26:48.496Z,100265.16
2023-08-12T18:29:17.254Z,100272.91
2023-08-12T18:31:45.626Z,100272.97
2023-08-12T18:34:15.146Z,100276.13
2023-08-12T18:36:43.824Z,100272.25
2023-08-12T18:39:12.227Z,100273.94
2023-08-12T18:41:40.907Z,100275.41
2023-08-12T18:44:09.523Z,100272.53
2023-08-12T18:46:38.226Z,100275.06
2023-08-12T18:49:06.967Z,100272.16
2023-08-12T18:51:36.650Z,100273.38
2023-08-12T18:54:05.772Z,100271.78
2023-08-12T18:56:34.365Z,100276.63
2023-08-12T18:59:02.628Z,100280.50
2023-08-12T19:01:30.915Z,100278.09
2023-08-12T19:03:59.456Z,100279.53
2023-08-12T19:06:27.971Z,100284.75
2023-08-12T19:08:57.856Z,100281.19
2023-08-12T19:11:26.360Z,100284.88
2023-08-12T19:13:54.833Z,100282.31
2023-08-12T19:16:23.261Z,100287.38
2023-08-12T19:18:52.150Z,100290.59
2023-08-12T19:21:20.829Z,100290.47
2023-08-12T19:23:51.449Z,100289.56
2023-08-12T19:26:25.142Z,100291.84
2023-08-12T19:28:53.700Z,100284.41
2023-08-12T19:31:21.981Z,100284.25
2023-08-12T19:33:51.053Z,100289.13
2023-08-12T19:36:19.391Z,100285.47
2023-08-12T19:38:47.950Z,100292.28
2023-08-12T19:41:17.373Z,100291.13
2023-08-12T19:43:47.768Z,100290.09
2023-08-12T19:46:16.915Z,100287.91
2023-08-12T19:48:55.809Z,100286.53
2023-08-12T19:51:24.163Z,100287.16
2023-08-12T19:53:52.929Z,100285.34
2023-08-12T19:56:21.162Z,100285.66
2023-08-12T19:58:51.107Z,100287.19
2023-08-12T20:01:19.914Z,100290.47
2023-08-12T20:03:48.570Z,100281.25
2023-08-12T20:06:17.503Z,100284.13
2023-08-12T20:08:46.120Z,100285.50
2023-08-12T20:11:14.621Z,100284.88
2023-08-12T20:13:43.089Z,100289.63
2023-08-12T20:16:12.796Z,100290.78
2023-08-12T20:18:41.619Z,100284.94
2023-08-12T20:21:09.935Z,100287.91
2023-08-12T20:23:38.300Z,100285.25
2023-08-12T20:26:06.812Z,100292.38
2023-08-12T20:28:35.336Z,100290.69
2023-08-12T20:31:04.961Z,100293.34
2023-08-12T20:33:35.549Z,100299.38
2023-08-12T20:36:04.168Z,100300.09
2023-08-12T20:38:33.000Z,100296.00
2023-08-12T20:41:02.796Z,100298.22
2023-08-12T20:43:31.282Z,100295.97
2023-08-12T20:45:59.839Z,100294.25
2023-08-12T20:48:28.622Z,100289.38
2023-08-12T20:51:01.949Z,100293.41
2023-08-12T20:53:32.453Z,100284.19
2023-08-12T20:56:01.245Z,100285.44
2023-08-12T20:58:29.885Z,100280.31
2023-08-12T21:00:59.067Z,100289.34
2023-08-12T21:03:27.933Z,100290.47
2023-08-12T21:05:56.410Z,100288.78
2023-08-12T21:08:27.429Z,100282.97
2023-08-12T21:10:56.031Z,100285.81
2023-08-12T21:13:24.364Z,100280.19
2023-08-12T21:15:53.218Z,100291.84
2023-08-12T21:18:21.898Z,100287.59
2023-08-12T21:20:50.405Z,100286.19
2023-08-12T21:23:21.119Z,100281.25
2023-08-12T21:25:51.163Z,100276.25
2023-08-12T21:28:20.025Z,100265.84
2023-08-12T21:30:51.808Z,100268.72
2023-08-12T21:33:20.843Z,100261.94
2023-08-12T21:35:50.159Z,100264.84
2023-08-12T21:38:19.306Z,100261.03
2023-08-12T21:40:48.187Z,100254.31
2023-08-12T21:43:18.656Z,100259.91
2023-08-12T21:45:47.941Z,100254.91
2023-08-12T21:48:16.851Z,100248.97
2023-08-12T21:50:45.791Z,100255.41
2023-08-12T21:53:14.376Z,100251.38
2023-08-12T21:55:43.810Z,100239.38
2023-08-12T21:58:12.104Z,100236.09
2023-08-12T22:00:42.196Z,100241.66
2023-08-12T22:03:11.067Z,100242.78
2023-08-12T22:05:39.349Z,100245.66
2023-08-12T22:08:08.262Z,100239.59
2023-08-12T22:10:36.683Z,100240.53
2023-08-12T22:13:06.972Z,100245.72
2023-08-12T22:15:35.567Z,100242.13
2023-08-12T22:18:06.025Z,100250.81
2023-08-12T22:20:34.716Z,100247.50
2023-08-12T22:23:03.914Z,100246.47
2023-08-12T22:25:32.377Z,100244.69
2023-08-12T22:28:00.912Z,100237.91
2023-08-12T22:30:29.900Z,100243.38
2023-08-12T22:32:58.652Z,100243.75
2023-08-12T22:35:28.764Z,100235.25
2023-08-12T22:37:57.207Z,100241.50
2023-08-12T22:40:26.096Z,100235.44
2023-08-12T22:42:56.785Z,100242.63
2023-08-12T22:45:25.440Z,100236.78
2023-08-12T22:47:54.218Z,100233.63
2023-08-12T22:50:22.882Z,100236.56
2023-08-12T22:52:52.682Z,100242.03
2023-08-12T22:55:21.801Z,100234.28
2023-08-12T22:57:50.918Z,100243.19
2023-08-12T23:00:21.508Z,100240.53
2023-08-12T23:02:50.175Z,100230.69
2023-08-12T23:05:19.073Z,100236.28
2023-08-12T23:07:47.802Z,100222.59
2023-08-12T23:10:17.855Z,100216.75
2023-08-12T23:12:46.321Z,100209.84
2023-08-12T23:15:17.951Z,100210.59
2023-08-12T23:17:46.811Z,100214.19
2023-08-12T23:20:15.744Z,100213.53
2023-08-12T23:22:44.556Z,100212.03
2023-08-12T23:25:14.483Z,100208.97
2023-08-12T23:27:44.986Z,100210.28
2023-08-12T23:30:15.470Z,100200.97
2023-08-12T23:32:45.790Z,100199.34
2023-08-12T23:35:18.995Z,100203.69
2023-08-12T23:37:48.042Z,100200.25
2023-08-12T23:40:17.921Z,100191.69
2023-08-12T23:42:47.671Z,100180.28
2023-08-12T23:45:15.976Z,100181.13
2023-08-12T23:47:44.442Z,100179.34
2023-08-12T23:50:13.748Z,100173.41
2023-08-12T23:52:42.448Z,100176.97
2023-08-12T23:55:11.339Z,100179.69
2023-08-12T23:57:40.069Z,100184.97
